Time;durP1;ratioP1;P1;durP2;ratioP2;P2;SDS_P1;SDS_P2;PMS_P1;PMS_P2;Temp;Humidity;BMP_temperature;BMP_pressure;BME280_temperature;BME280_humidity;BME280_pressure;Samples;Min_cycle;Max_cycle;Signal;HPM_P1;HPM_P2
2021/10/26 00:01:08;;;;;;;3.33;2.80;;;13.90;77.10;;;;;;5134593;27;20467;-60
2021/10/26 00:03:35;;;;;;;3.10;2.63;;;13.90;77.10;;;;;;5115834;27;20062;-60
2021/10/26 00:06:00;;;;;;;2.88;2.25;;;13.90;77.10;;;;;;5135039;27;20054;-61
2021/10/26 00:08:26;;;;;;;2.78;2.50;;;13.90;77.10;;;;;;5135023;27;20043;-59
2021/10/26 00:10:53;;;;;;;3.20;2.45;;;13.90;77.10;;;;;;5135043;27;20039;-62
2021/10/26 00:13:18;;;;;;;2.58;2.38;;;13.90;77.10;;;;;;5135065;27;20047;-61
2021/10/26 00:15:44;;;;;;;3.65;2.63;;;13.90;77.10;;;;;;5134887;27;20034;-61
2021/10/26 00:18:10;;;;;;;3.00;2.65;;;13.90;77.10;;;;;;5134157;27;20043;-60
2021/10/26 00:20:36;;;;;;;3.80;3.05;;;13.90;77.10;;;;;;5134485;27;20055;-61
2021/10/26 00:23:03;;;;;;;3.17;2.85;;;13.90;77.10;;;;;;5115627;27;20419;-59
2021/10/26 00:25:28;;;;;;;2.63;2.42;;;13.90;77.10;;;;;;5115854;27;20050;-60
2021/10/26 00:27:54;;;;;;;2.50;2.30;;;13.90;77.10;;;;;;5134716;27;20046;-60
2021/10/26 00:30:20;;;;;;;2.88;2.50;;;13.90;77.70;;;;;;5115838;27;20046;-60
2021/10/26 00:32:45;;;;;;;3.13;2.40;;;13.90;77.10;;;;;;5133931;27;20047;-59
2021/10/26 00:35:11;;;;;;;3.25;2.60;;;13.90;77.10;;;;;;5134557;27;20397;-60
2021/10/26 00:37:37;;;;;;;2.85;2.20;;;13.90;77.10;;;;;;5133805;27;20047;-60
2021/10/26 00:40:08;;;;;;;2.83;2.47;;;13.90;77.10;;;;;;5134071;27;20046;-60
2021/10/26 00:42:33;;;;;;;2.78;2.40;;;13.90;77.10;;;;;;5134126;27;20042;-61
2021/10/26 00:44:59;;;;;;;2.60;2.40;;;13.90;77.10;;;;;;5134339;27;20047;-58
2021/10/26 00:47:25;;;;;;;2.97;2.42;;;13.90;77.10;;;;;;5134124;27;20050;-61
2021/10/26 00:49:51;;;;;;;2.90;2.60;;;13.90;77.10;;;;;;5133776;27;20039;-60
2021/10/26 00:52:17;;;;;;;2.95;2.28;;;13.90;77.10;;;;;;5133858;27;20380;-58
2021/10/26 00:54:43;;;;;;;2.55;2.30;;;14.00;77.10;;;;;;5115261;27;20043;-61
2021/10/26 00:57:09;;;;;;;2.35;2.10;;;13.90;77.10;;;;;;5134045;27;20130;-61
2021/10/26 00:59:35;;;;;;;2.83;2.38;;;13.90;77.10;;;;;;5133917;27;20043;-59
2021/10/26 01:02:01;;;;;;;2.65;2.20;;;13.90;77.10;;;;;;5134124;27;20047;-57
2021/10/26 01:04:27;;;;;;;3.33;2.42;;;13.90;77.10;;;;;;5133370;27;20047;-58
2021/10/26 01:06:55;;;;;;;2.50;2.30;;;13.90;77.10;;;;;;5115224;27;20065;-57
2021/10/26 01:09:21;;;;;;;3.15;2.67;;;13.90;77.10;;;;;;5133718;27;20394;-58
2021/10/26 01:11:47;;;;;;;3.05;2.55;;;13.90;77.10;;;;;;5133796;27;20047;-61
2021/10/26 01:14:13;;;;;;;2.92;2.42;;;13.90;77.10;;;;;;5098037;27;20047;-60
2021/10/26 01:16:39;;;;;;;2.42;2.22;;;13.90;77.10;;;;;;5115699;28;20039;-61
2021/10/26 01:19:05;;;;;;;2.40;2.20;;;13.90;77.10;;;;;;5133938;27;20038;-61
2021/10/26 01:21:31;;;;;;;3.53;2.60;;;13.90;77.10;;;;;;5133107;27;20069;-60
2021/10/26 01:23:56;;;;;;;3.85;3.00;;;13.90;77.10;;;;;;5133346;27;20041;-59
2021/10/26 01:26:23;;;;;;;3.30;2.63;;;13.90;77.10;;;;;;5133567;27;20110;-61
2021/10/26 01:28:49;;;;;;;2.78;2.53;;;13.90;77.10;;;;;;5133842;28;20045;-61
2021/10/26 01:31:15;;;;;;;3.92;3.15;;;13.90;77.10;;;;;;5133551;28;20542;-61
2021/10/26 01:33:41;;;;;;;4.13;3.40;;;13.90;77.10;;;;;;5133774;28;20039;-62
2021/10/26 01:36:07;;;;;;;3.28;2.75;;;13.90;77.10;;;;;;5133099;28;20123;-61
2021/10/26 01:38:33;;;;;;;4.70;3.08;;;13.90;77.10;;;;;;5133692;28;20499;-60
2021/10/26 01:40:59;;;;;;;3.10;2.72;;;13.90;77.10;;;;;;5133138;28;20133;-60
2021/10/26 01:43:25;;;;;;;3.30;2.80;;;13.90;77.10;;;;;;5133197;28;20122;-62
2021/10/26 01:45:51;;;;;;;3.17;2.80;;;13.80;77.00;;;;;;5133642;28;20046;-58
2021/10/26 01:48:17;;;;;;;4.38;3.25;;;13.90;77.10;;;;;;5135034;27;20050;-60
2021/10/26 01:50:43;;;;;;;3.20;2.90;;;13.80;77.00;;;;;;5137705;27;20429;-57
2021/10/26 01:53:09;;;;;;;3.90;3.20;;;13.90;77.10;;;;;;5137084;27;20054;-60
2021/10/26 01:55:35;;;;;;;3.83;3.22;;;13.90;77.10;;;;;;5137377;27;20046;-59
2021/10/26 01:58:02;;;;;;;4.10;3.20;;;13.90;77.10;;;;;;5137465;27;20031;-59
2021/10/26 02:00:27;;;;;;;3.03;2.63;;;13.80;77.10;;;;;;5137499;27;20419;-60
2021/10/26 02:02:53;;;;;;;4.45;3.88;;;13.90;77.10;;;;;;5137546;27;20039;-60
2021/10/26 02:05:19;;;;;;;3.05;2.47;;;13.90;77.10;;;;;;5137476;27;20554;-60
2021/10/26 02:07:46;;;;;;;3.95;2.95;;;13.90;77.10;;;;;;5137040;27;20039;-61
2021/10/26 02:10:12;;;;;;;3.88;3.38;;;13.90;77.10;;;;;;5136798;27;20544;-60
2021/10/26 02:12:39;;;;;;;4.03;3.47;;;13.90;77.10;;;;;;5137322;27;20454;-61
2021/10/26 02:15:06;;;;;;;3.35;2.90;;;13.90;77.10;;;;;;5137450;27;20039;-61
2021/10/26 02:17:32;;;;;;;4.70;3.65;;;13.90;77.10;;;;;;5137248;27;20043;-60
2021/10/26 02:19:58;;;;;;;3.40;2.83;;;13.90;77.10;;;;;;5137058;27;20039;-57
2021/10/26 02:22:23;;;;;;;3.95;3.25;;;13.90;77.10;;;;;;5136863;27;20457;-61
2021/10/26 02:24:50;;;;;;;4.43;3.40;;;14.00;77.10;;;;;;5117279;27;20058;-59
2021/10/26 02:27:16;;;;;;;3.80;2.65;;;13.90;77.10;;;;;;5137138;27;20097;-61
2021/10/26 02:29:42;;;;;;;4.60;3.08;;;13.90;77.10;;;;;;5118061;27;20074;-57
2021/10/26 02:32:07;;;;;;;4.28;3.08;;;13.90;77.10;;;;;;5136902;27;20126;-60
2021/10/26 02:34:33;;;;;;;3.50;2.90;;;13.90;77.10;;;;;;5136772;27;20121;-60
2021/10/26 02:36:59;;;;;;;3.47;3.17;;;13.90;77.10;;;;;;5136793;27;20046;-59
2021/10/26 02:39:25;;;;;;;3.50;3.20;;;13.90;77.20;;;;;;5136256;27;20101;-59
2021/10/26 02:41:50;;;;;;;3.22;2.80;;;13.90;77.10;;;;;;5136535;27;20618;-59
2021/10/26 02:44:17;;;;;;;2.90;2.60;;;13.90;77.10;;;;;;5136459;27;20095;-60
2021/10/26 02:46:43;;;;;;;3.40;3.10;;;13.90;77.10;;;;;;5136701;27;20073;-60
2021/10/26 02:49:09;;;;;;;3.45;2.95;;;13.90;77.10;;;;;;5136727;27;20111;-61
2021/10/26 02:51:35;;;;;;;3.47;3.17;;;13.90;77.10;;;;;;5136597;27;20398;-59
2021/10/26 02:54:01;;;;;;;4.38;3.20;;;13.90;77.10;;;;;;5136381;27;20054;-59
2021/10/26 02:56:27;;;;;;;3.40;3.10;;;13.90;77.10;;;;;;5117635;27;20043;-60
2021/10/26 02:58:53;;;;;;;4.40;3.47;;;13.90;77.10;;;;;;5136019;27;20130;-61
2021/10/26 03:01:19;;;;;;;4.28;3.38;;;14.00;77.20;;;;;;5135393;27;20399;-61
2021/10/26 03:03:45;;;;;;;4.18;3.40;;;13.90;77.80;;;;;;5136527;27;20546;-59
2021/10/26 03:06:12;;;;;;;3.65;3.15;;;13.90;77.10;;;;;;5136462;27;20035;-60
2021/10/26 03:08:38;;;;;;;5.40;3.22;;;13.90;77.10;;;;;;5136089;27;20043;-59
2021/10/26 03:11:04;;;;;;;4.05;3.45;;;13.80;77.10;;;;;;5135558;27;20066;-60
2021/10/26 03:13:30;;;;;;;4.28;3.40;;;13.80;77.10;;;;;;5136200;27;20363;-60
2021/10/26 03:15:56;;;;;;;4.60;3.30;;;13.90;77.10;;;;;;5135761;27;20495;-57
2021/10/26 03:18:21;;;;;;;3.30;3.00;;;13.90;77.20;;;;;;5135841;27;20084;-58
2021/10/26 03:20:47;;;;;;;4.57;3.40;;;13.90;77.10;;;;;;5116496;27;20051;-59
2021/10/26 03:23:13;;;;;;;3.85;3.33;;;13.90;77.10;;;;;;5135961;27;20051;-56
2021/10/26 03:25:38;;;;;;;3.90;3.15;;;13.90;77.10;;;;;;5135874;27;20115;-60
2021/10/26 03:28:04;;;;;;;4.35;3.53;;;13.90;77.80;;;;;;5135266;27;20039;-60
2021/10/26 03:30:30;;;;;;;3.33;3.00;;;13.90;77.10;;;;;;5135613;27;20424;-60
2021/10/26 03:32:55;;;;;;;3.95;3.35;;;13.80;77.10;;;;;;5135672;27;20043;-59
2021/10/26 03:35:21;;;;;;;3.10;2.80;;;13.80;77.10;;;;;;5135515;27;20403;-60
2021/10/26 03:37:47;;;;;;;4.22;3.40;;;13.90;77.10;;;;;;5135486;27;20088;-61
2021/10/26 03:40:13;;;;;;;4.32;3.25;;;13.90;77.10;;;;;;5135375;27;20112;-60
2021/10/26 03:42:39;;;;;;;3.53;3.13;;;13.90;77.20;;;;;;5135092;27;20100;-60
2021/10/26 03:45:06;;;;;;;3.35;2.85;;;13.90;77.20;;;;;;5135244;27;20122;-61
2021/10/26 03:47:40;;;;;;;4.60;3.17;;;13.90;77.10;;;;;;5134892;27;20035;-60
2021/10/26 03:50:08;;;;;;;3.67;3.10;;;13.90;77.10;;;;;;5135469;27;20043;-60
2021/10/26 03:52:34;;;;;;;3.88;3.30;;;13.90;77.10;;;;;;5134839;27;20112;-59
2021/10/26 03:55:00;;;;;;;4.00;3.17;;;13.80;77.10;;;;;;5135420;27;20039;-60
2021/10/26 03:57:25;;;;;;;4.57;3.58;;;13.80;77.10;;;;;;5135284;27;20043;-60
2021/10/26 03:59:51;;;;;;;4.43;2.92;;;13.90;77.20;;;;;;5134626;27;20046;-59
2021/10/26 04:02:25;;;;;;;4.15;3.08;;;13.90;77.20;;;;;;5134854;27;20383;-59
2021/10/26 04:04:52;;;;;;;3.50;3.20;;;13.80;77.10;;;;;;5135141;27;20118;-61
2021/10/26 04:07:19;;;;;;;3.53;3.10;;;13.80;77.10;;;;;;5135068;27;20123;-59
2021/10/26 04:12:25;;;;;;;3.75;3.08;;;13.90;77.20;;;;;;5134994;27;20051;-59
2021/10/26 04:14:54;;;;;;;4.07;3.38;;;13.90;77.10;;;;;;5134208;27;20519;-61
2021/10/26 04:17:20;;;;;;;3.72;3.28;;;13.80;77.10;;;;;;5134559;27;20043;-58
2021/10/26 04:19:48;;;;;;;2.72;2.40;;;13.80;77.10;;;;;;5134522;27;20049;-58
2021/10/26 04:22:15;;;;;;;3.83;3.00;;;13.90;77.20;;;;;;5134783;27;20453;-61
2021/10/26 04:24:41;;;;;;;3.47;2.90;;;13.90;77.10;;;;;;5134560;27;20128;-59
2021/10/26 04:27:07;;;;;;;3.22;2.92;;;13.90;77.20;;;;;;5134353;27;20089;-61
2021/10/26 04:29:33;;;;;;;4.25;3.50;;;13.80;77.10;;;;;;5133969;27;20050;-56
2021/10/26 04:31:58;;;;;;;5.05;3.38;;;13.90;77.10;;;;;;5133493;27;20039;-60
2021/10/26 04:34:24;;;;;;;3.85;3.25;;;13.90;77.10;;;;;;5134318;27;20062;-61
2021/10/26 04:36:49;;;;;;;3.40;3.10;;;13.90;77.20;;;;;;5133921;27;20134;-59
2021/10/26 04:39:15;;;;;;;3.33;2.75;;;13.80;77.10;;;;;;5115267;27;20046;-61
2021/10/26 04:41:41;;;;;;;3.20;2.90;;;13.80;77.10;;;;;;5133997;27;20170;-59
2021/10/26 04:44:07;;;;;;;4.40;3.30;;;13.80;77.10;;;;;;5133891;27;20043;-60
2021/10/26 04:46:33;;;;;;;3.55;2.90;;;13.90;77.20;;;;;;5133601;27;20421;-57
2021/10/26 04:49:00;;;;;;;4.38;2.92;;;13.90;77.80;;;;;;5134114;27;20106;-59
2021/10/26 04:51:26;;;;;;;3.03;2.72;;;13.90;77.20;;;;;;5134112;27;20040;-59
2021/10/26 04:53:52;;;;;;;2.90;2.58;;;13.80;77.10;;;;;;5133896;27;20449;-57
2021/10/26 04:56:17;;;;;;;3.63;3.03;;;13.80;77.10;;;;;;5134268;27;20035;-57
2021/10/26 04:58:43;;;;;;;3.53;2.97;;;13.90;77.20;;;;;;5133604;27;20043;-59
2021/10/26 05:01:09;;;;;;;2.85;2.58;;;13.80;77.10;;;;;;5134136;27;20081;-57
2021/10/26 05:03:34;;;;;;;3.20;2.90;;;13.80;77.10;;;;;;5114799;27;20051;-60
2021/10/26 05:06:02;;;;;;;3.53;3.22;;;13.90;77.20;;;;;;5134049;27;20073;-59
2021/10/26 05:08:28;;;;;;;3.40;2.88;;;13.80;77.10;;;;;;5133933;27;20478;-61
2021/10/26 05:10:54;;;;;;;2.97;2.60;;;13.80;77.10;;;;;;5133825;27;20039;-60
2021/10/26 05:13:20;;;;;;;3.30;2.83;;;13.90;77.20;;;;;;5133502;27;20046;-58
2021/10/26 05:15:46;;;;;;;3.63;2.83;;;13.90;77.20;;;;;;5133705;27;20416;-58
2021/10/26 05:18:14;;;;;;;3.30;2.78;;;13.80;77.10;;;;;;5114916;27;20167;-57
2021/10/26 05:20:40;;;;;;;3.15;2.75;;;13.80;77.10;;;;;;5133602;27;20055;-59
2021/10/26 05:23:07;;;;;;;3.42;3.13;;;13.80;77.10;;;;;;5133086;27;20120;-58
2021/10/26 05:25:33;;;;;;;3.17;2.88;;;13.80;77.10;;;;;;5133572;27;20043;-57
2021/10/26 05:27:59;;;;;;;3.42;2.85;;;13.80;77.10;;;;;;5133750;27;20043;-57
2021/10/26 05:30:25;;;;;;;3.13;2.80;;;13.80;77.10;;;;;;5133793;28;20093;-57
2021/10/26 05:32:51;;;;;;;3.30;3.00;;;13.80;77.10;;;;;;5097918;28;20528;-57
2021/10/26 05:35:17;;;;;;;3.00;2.70;;;13.90;77.20;;;;;;5132913;28;20129;-57
2021/10/26 05:37:43;;;;;;;4.18;2.80;;;13.90;77.20;;;;;;5133573;28;20134;-57
2021/10/26 05:40:09;;;;;;;3.70;3.13;;;13.90;77.20;;;;;;5133368;28;20082;-60
2021/10/26 05:42:35;;;;;;;4.40;2.90;;;13.90;77.20;;;;;;5133384;28;20047;-60
2021/10/26 05:45:04;;;;;;;3.45;3.03;;;13.90;77.20;;;;;;5133445;28;20122;-57
2021/10/26 05:47:31;;;;;;;3.05;2.72;;;13.80;77.10;;;;;;5133608;28;20049;-59
2021/10/26 05:49:56;;;;;;;3.00;2.70;;;13.80;77.10;;;;;;5132747;28;20078;-61
2021/10/26 05:52:23;;;;;;;3.53;2.85;;;13.90;77.20;;;;;;5133520;28;20067;-57
2021/10/26 05:54:49;;;;;;;3.80;2.92;;;13.90;77.20;;;;;;5133479;28;20106;-59
2021/10/26 05:57:14;;;;;;;3.03;2.67;;;13.90;77.20;;;;;;5114725;28;20055;-59
2021/10/26 05:59:41;;;;;;;3.92;3.15;;;13.80;77.10;;;;;;5133331;28;20074;-61
2021/10/26 06:02:07;;;;;;;3.25;2.70;;;13.90;77.20;;;;;;5133555;28;20058;-62
2021/10/26 06:04:32;;;;;;;3.88;3.15;;;13.90;77.20;;;;;;5132783;28;20522;-56
2021/10/26 06:06:58;;;;;;;3.60;2.97;;;13.80;77.20;;;;;;5132497;28;20364;-57
2021/10/26 06:09:24;;;;;;;3.40;3.05;;;13.80;77.10;;;;;;5114217;28;20142;-58
2021/10/26 06:11:51;;;;;;;3.42;2.55;;;13.80;77.20;;;;;;5132692;28;20046;-61
2021/10/26 06:14:17;;;;;;;4.15;3.30;;;13.80;77.20;;;;;;5132796;28;20050;-58
2021/10/26 06:16:43;;;;;;;3.17;2.78;;;13.90;77.20;;;;;;5132634;28;20031;-56
2021/10/26 06:19:10;;;;;;;3.13;2.53;;;13.80;77.20;;;;;;5132215;28;20043;-57
2021/10/26 06:21:36;;;;;;;3.65;3.05;;;13.80;77.10;;;;;;5131051;28;20082;-57
2021/10/26 06:24:03;;;;;;;3.47;2.83;;;13.80;77.10;;;;;;5131693;28;20109;-55
2021/10/26 06:26:29;;;;;;;3.75;3.13;;;13.80;77.20;;;;;;5114473;28;20096;-62
2021/10/26 06:28:56;;;;;;;3.15;2.80;;;13.80;77.20;;;;;;5132796;28;20044;-57
2021/10/26 06:31:22;;;;;;;4.65;3.22;;;13.90;77.90;;;;;;5132851;28;20100;-60
2021/10/26 06:33:48;;;;;;;3.25;2.90;;;13.80;77.20;;;;;;5114135;27;20054;-60
2021/10/26 06:36:14;;;;;;;3.30;3.00;;;13.80;77.20;;;;;;5135316;27;20043;-58
2021/10/26 06:38:40;;;;;;;3.72;3.17;;;13.80;77.10;;;;;;5136405;27;20467;-58
2021/10/26 06:41:06;;;;;;;3.63;3.10;;;13.80;77.10;;;;;;5117723;27;20054;-57
2021/10/26 06:43:33;;;;;;;4.28;2.92;;;13.80;77.10;;;;;;5136355;27;20039;-58
2021/10/26 06:45:59;;;;;;;4.05;2.67;;;13.80;77.80;;;;;;5136890;27;20118;-53
2021/10/26 06:48:25;;;;;;;3.50;3.13;;;13.80;77.10;;;;;;5136650;27;20482;-59
2021/10/26 06:50:51;;;;;;;3.08;2.78;;;13.80;77.10;;;;;;5136485;27;20122;-61
2021/10/26 06:53:19;;;;;;;3.88;2.90;;;13.80;77.10;;;;;;5135742;27;20122;-61
2021/10/26 06:55:44;;;;;;;3.47;2.90;;;13.90;77.20;;;;;;5136536;27;20080;-59
2021/10/26 06:58:10;;;;;;;3.60;3.03;;;13.80;77.10;;;;;;5136603;27;20043;-60
2021/10/26 07:00:36;;;;;;;3.33;2.97;;;13.90;77.20;;;;;;5136444;27;20047;-56
2021/10/26 07:03:05;;;;;;;3.40;2.65;;;13.80;77.20;;;;;;5136458;27;20413;-57
2021/10/26 07:05:33;;;;;;;3.08;2.67;;;13.80;77.20;;;;;;5136102;27;20039;-57
2021/10/26 07:07:59;;;;;;;3.67;2.95;;;13.80;77.10;;;;;;5135898;27;20054;-57
2021/10/26 07:10:25;;;;;;;3.72;2.90;;;13.80;77.80;;;;;;5117179;27;20039;-58
2021/10/26 07:12:51;;;;;;;4.32;3.33;;;13.80;77.10;;;;;;5136130;27;20051;-61
2021/10/26 07:15:17;;;;;;;4.05;3.17;;;13.80;77.10;;;;;;5136346;27;20108;-61
2021/10/26 07:17:43;;;;;;;3.20;2.88;;;13.80;77.10;;;;;;5135775;27;20058;-58
2021/10/26 07:20:16;;;;;;;3.55;2.78;;;13.80;77.10;;;;;;5135860;27;20047;-60
2021/10/26 07:22:51;;;;;;;3.20;2.90;;;13.80;77.10;;;;;;5135622;27;20051;-61
2021/10/26 07:25:17;;;;;;;3.92;2.85;;;13.80;77.10;;;;;;5135310;27;20043;-57
2021/10/26 07:27:43;;;;;;;3.17;2.65;;;13.80;77.20;;;;;;5117272;27;20087;-60
2021/10/26 07:30:11;;;;;;;3.55;3.03;;;13.90;77.20;;;;;;5135651;27;20165;-58
2021/10/26 07:32:38;;;;;;;3.00;2.50;;;13.80;77.10;;;;;;5116709;27;20047;-56
2021/10/26 07:35:05;;;;;;;4.15;3.30;;;13.80;77.10;;;;;;5116240;27;20043;-59
2021/10/26 07:37:37;;;;;;;3.20;2.85;;;13.80;77.20;;;;;;5115845;27;20051;-59
2021/10/26 07:40:03;;;;;;;3.50;3.05;;;13.80;77.20;;;;;;5116351;27;20479;-59
2021/10/26 07:42:29;;;;;;;3.38;3.00;;;13.80;77.20;;;;;;5134925;27;20050;-58
2021/10/26 07:44:55;;;;;;;3.30;2.92;;;13.80;77.20;;;;;;5135171;27;20039;-60
2021/10/26 07:47:21;;;;;;;10.35;7.47;;;13.80;77.20;;;;;;5134614;27;20035;-61
2021/10/26 07:49:49;;;;;;;31.83;19.48;;;13.80;77.70;;;;;;5134682;27;20050;-63
2021/10/26 07:52:16;;;;;;;24.73;16.70;;;13.80;79.20;;;;;;5115853;27;20047;-62
2021/10/26 07:54:47;;;;;;;27.27;17.00;;;13.70;79.50;;;;;;5134547;27;20047;-61
2021/10/26 07:57:13;;;;;;;22.77;14.85;;;13.60;79.60;;;;;;5116080;27;20512;-61
2021/10/26 07:59:39;;;;;;;27.08;15.65;;;13.60;79.70;;;;;;5116426;27;20054;-62
2021/10/26 08:02:04;;;;;;;23.52;15.70;;;13.60;79.70;;;;;;5131009;27;20539;-62
2021/10/26 08:04:30;;;;;;;24.63;15.55;;;13.60;79.60;;;;;;5125392;27;20100;-62
2021/10/26 08:06:56;;;;;;;22.00;15.00;;;13.60;79.60;;;;;;5113548;28;20040;-62
2021/10/26 08:09:21;;;;;;;20.02;14.05;;;13.70;79.50;;;;;;5095314;28;20185;-62
2021/10/26 08:11:48;;;;;;;23.60;14.55;;;13.70;79.40;;;;;;5113300;28;20176;-62
2021/10/26 08:14:14;;;;;;;23.90;15.63;;;13.70;79.20;;;;;;5095486;28;20036;-62
2021/10/26 08:16:40;;;;;;;18.75;13.95;;;13.70;79.10;;;;;;5113970;28;20391;-61
2021/10/26 08:19:06;;;;;;;21.50;14.65;;;13.70;79.00;;;;;;5124462;27;20050;-62
2021/10/26 08:21:32;;;;;;;21.73;14.98;;;13.70;78.90;;;;;;5133705;27;20055;-62
2021/10/26 08:24:00;;;;;;;20.80;14.18;;;13.70;78.80;;;;;;5134000;27;20543;-63
2021/10/26 08:26:57;;;;;;;20.38;14.63;;;13.70;78.80;;;;;;5115458;27;20035;-62
2021/10/26 08:29:18;;;;;;;22.05;15.23;;;13.80;78.70;;;;;;5132929;27;20133;-62
2021/10/26 08:32:01;;;;;;;24.10;13.85;;;13.80;78.70;;;;;;5133839;27;20047;-62
2021/10/26 08:37:12;;;;;;;17.40;13.30;;;13.70;78.50;;;;;;5133426;27;20178;-62
2021/10/26 08:39:41;;;;;;;18.05;13.00;;;13.80;78.50;;;;;;5133926;27;20530;-62
2021/10/26 08:42:11;;;;;;;18.92;14.80;;;13.80;78.40;;;;;;5115565;27;20043;-63
2021/10/26 08:44:37;;;;;;;15.85;13.23;;;13.80;78.40;;;;;;5133321;27;20384;-63
2021/10/26 08:47:06;;;;;;;17.45;13.18;;;13.70;78.30;;;;;;5114961;27;20126;-62
2021/10/26 08:49:33;;;;;;;17.40;13.18;;;13.80;78.30;;;;;;5133926;27;20043;-63
2021/10/26 08:52:00;;;;;;;18.35;11.60;;;13.80;78.30;;;;;;5113490;27;20073;-62
2021/10/26 08:54:26;;;;;;;15.60;11.82;;;13.80;78.30;;;;;;5115221;27;20529;-62
2021/10/26 08:56:51;;;;;;;16.65;12.55;;;13.80;78.20;;;;;;5133553;27;20071;-62
2021/10/26 08:59:23;;;;;;;15.75;12.10;;;13.80;78.20;;;;;;5113869;27;20051;-63
2021/10/26 09:01:51;;;;;;;16.05;12.23;;;13.80;78.10;;;;;;5133323;27;20047;-61
2021/10/26 09:04:17;;;;;;;15.15;10.57;;;13.80;78.10;;;;;;5133731;27;20047;-63
2021/10/26 09:06:53;;;;;;;17.52;11.65;;;13.80;78.10;;;;;;5133801;27;20490;-61
2021/10/26 09:09:27;;;;;;;17.33;11.82;;;13.80;78.00;;;;;;5133654;27;20051;-62
2021/10/26 09:17:27;;;;;;;13.65;11.85;;;13.80;78.00;;;;;;5114886;27;20047;-62
2021/10/26 09:20:01;;;;;;;12.98;10.55;;;13.80;78.00;;;;;;5133190;27;20351;-62
2021/10/26 09:22:28;;;;;;;15.20;10.88;;;13.80;77.90;;;;;;5133515;27;20051;-62
2021/10/26 09:24:58;;;;;;;13.95;10.38;;;13.90;78.00;;;;;;5133058;27;20035;-62
2021/10/26 09:27:25;;;;;;;13.52;10.63;;;13.90;77.90;;;;;;5133539;27;20035;-62
2021/10/26 09:29:54;;;;;;;14.73;11.07;;;13.80;77.80;;;;;;5133012;27;20055;-61
2021/10/26 09:32:22;;;;;;;15.55;11.07;;;13.90;77.90;;;;;;5132710;28;20058;-62
2021/10/26 09:34:49;;;;;;;20.75;12.48;;;13.80;77.80;;;;;;5114289;28;20066;-59
2021/10/26 09:37:17;;;;;;;19.63;11.80;;;13.80;78.80;;;;;;5132892;28;20486;-60
2021/10/26 09:40:09;;;;;;;17.48;11.63;;;13.90;79.00;;;;;;5132854;28;20031;-67
2021/10/26 09:42:52;;;;;;;17.58;11.15;;;13.90;79.00;;;;;;5126952;28;20043;-60
2021/10/26 09:45:24;;;;;;;14.35;10.68;;;13.90;79.00;;;;;;5132564;28;20110;-60
2021/10/26 09:48:20;;;;;;;17.17;10.20;;;13.90;79.00;;;;;;5127694;27;20433;-58
2021/10/26 09:50:47;;;;;;;13.27;10.23;;;13.90;79.00;;;;;;5150729;27;20093;-61
2021/10/26 09:53:14;;;;;;;17.35;10.70;;;13.90;78.90;;;;;;5134261;27;20400;-65
2021/10/26 09:55:48;;;;;;;13.27;10.40;;;13.90;78.90;;;;;;5132744;28;20052;-61
2021/10/26 09:58:21;;;;;;;14.00;10.25;;;13.90;78.80;;;;;;5132244;28;20047;-60
2021/10/26 10:00:50;;;;;;;13.50;10.13;;;13.90;78.80;;;;;;5111743;28;20096;-63
2021/10/26 10:03:24;;;;;;;14.50;8.98;;;13.90;78.80;;;;;;5127154;28;20048;-63
2021/10/26 10:05:59;;;;;;;16.02;10.18;;;13.90;78.70;;;;;;5112129;28;20051;-66
2021/10/26 10:08:28;;;;;;;;;;;13.90;78.60;;;;;;5112698;28;20047;-66
2021/10/26 10:10:55;;;;;;;14.60;8.82;;;13.90;78.50;;;;;;5116126;28;19972;-61
2021/10/26 10:13:26;;;;;;;14.73;9.77;;;13.80;78.60;;;;;;5115932;28;20081;-60
2021/10/26 10:15:51;;;;;;;11.25;8.55;;;13.90;78.60;;;;;;5115906;28;20040;-61
2021/10/26 10:18:19;;;;;;;9.05;7.60;;;13.90;78.60;;;;;;5115375;28;20089;-65
2021/10/26 10:20:51;;;;;;;10.35;8.30;;;13.90;78.50;;;;;;5096895;28;20481;-62
2021/10/26 10:23:18;;;;;;;12.32;8.13;;;13.90;78.50;;;;;;5097034;28;20051;-60
2021/10/26 10:25:47;;;;;;;13.75;8.60;;;14.00;78.50;;;;;;5131389;27;20459;-64
2021/10/26 10:28:25;;;;;;;11.45;7.80;;;13.90;78.40;;;;;;5115596;28;20044;-64
2021/10/26 10:30:51;;;;;;;10.40;8.35;;;13.90;78.40;;;;;;5116062;28;20036;-59
2021/10/26 10:33:18;;;;;;;9.63;8.02;;;14.00;78.50;;;;;;5115070;28;20498;-57
2021/10/26 10:35:48;;;;;;;11.40;7.57;;;13.90;78.40;;;;;;5130198;27;20452;-59
2021/10/26 10:38:15;;;;;;;10.23;7.57;;;13.90;78.40;;;;;;5137110;27;20050;-60
2021/10/26 10:40:41;;;;;;;10.55;7.50;;;13.90;78.30;;;;;;5135516;27;20402;-57
2021/10/26 10:43:08;;;;;;;9.40;7.38;;;13.90;78.30;;;;;;5135742;27;20054;-59
2021/10/26 10:45:41;;;;;;;9.38;7.55;;;13.90;78.30;;;;;;5117175;27;20395;-61
2021/10/26 10:48:28;;;;;;;9.23;7.18;;;13.90;78.30;;;;;;5134631;27;20043;-60
2021/10/26 10:51:12;;;;;;;8.43;6.68;;;14.00;78.20;;;;;;5135518;27;20126;-57
2021/10/26 10:53:40;;;;;;;10.27;6.82;;;13.90;78.20;;;;;;5135535;27;20513;-60
2021/10/26 10:56:21;;;;;;;9.57;7.00;;;13.90;78.30;;;;;;5116961;27;20095;-59
2021/10/26 10:58:49;;;;;;;8.82;7.38;;;13.90;78.20;;;;;;5135840;27;20043;-57
2021/10/26 11:01:36;;;;;;;9.80;7.35;;;13.90;78.20;;;;;;5135643;27;20111;-57
2021/10/26 11:04:18;;;;;;;9.75;7.00;;;14.00;78.20;;;;;;5135420;27;20039;-58
2021/10/26 11:06:43;;;;;;;7.28;6.40;;;13.90;78.10;;;;;;5135351;27;20043;-67
2021/10/26 11:09:31;;;;;;;8.73;7.15;;;13.90;78.20;;;;;;5134211;27;20715;-66
2021/10/26 11:12:20;;;;;;;8.65;6.28;;;13.90;78.10;;;;;;5135441;27;20054;-68
2021/10/26 11:14:47;;;;;;;7.28;6.18;;;13.90;78.10;;;;;;5134981;27;20059;-62
2021/10/26 11:17:31;;;;;;;10.25;6.57;;;13.90;78.20;;;;;;5135289;27;20054;-58
2021/10/26 11:19:58;;;;;;;7.57;6.53;;;14.00;78.20;;;;;;5134555;27;20043;-58
2021/10/26 11:22:50;;;;;;;8.98;6.38;;;14.00;78.20;;;;;;5134740;27;20487;-59
2021/10/26 11:25:34;;;;;;;7.20;5.75;;;13.90;78.10;;;;;;5133871;27;20039;-59
2021/10/26 11:28:13;;;;;;;7.70;5.80;;;13.90;78.20;;;;;;5135081;27;20047;-60
2021/10/26 11:30:44;;;;;;;9.18;6.07;;;14.00;78.20;;;;;;5135085;27;20176;-61
2021/10/26 11:33:12;;;;;;;6.55;5.80;;;13.90;78.20;;;;;;5116529;27;20055;-59
2021/10/26 11:35:49;;;;;;;7.53;5.90;;;14.00;78.20;;;;;;5141583;27;20038;-58
2021/10/26 11:38:17;;;;;;;7.28;5.93;;;14.00;78.20;;;;;;5155519;27;20125;-59
2021/10/26 11:41:04;;;;;;;8.57;6.10;;;14.00;78.20;;;;;;5156118;27;20043;-59
2021/10/26 11:43:49;;;;;;;6.35;5.10;;;14.00;78.10;;;;;;5133676;27;20061;-61
2021/10/26 11:46:29;;;;;;;6.25;5.45;;;14.00;78.10;;;;;;5114004;27;20039;-63
2021/10/26 11:49:06;;;;;;;5.78;5.18;;;14.00;78.20;;;;;;5116913;27;20043;-62
2021/10/26 11:51:35;;;;;;;5.85;5.00;;;14.00;78.20;;;;;;5135206;27;20054;-62
2021/10/26 11:54:20;;;;;;;7.32;5.38;;;13.90;78.10;;;;;;5116011;27;20111;-58
2021/10/26 11:56:52;;;;;;;6.25;4.97;;;14.00;78.20;;;;;;5134857;27;20118;-58
2021/10/26 11:59:27;;;;;;;5.68;4.78;;;14.00;78.20;;;;;;5134780;27;20050;-57
2021/10/26 12:01:59;;;;;;;5.93;5.22;;;14.00;78.20;;;;;;5126713;27;20449;-57
2021/10/26 12:04:29;;;;;;;5.53;4.80;;;14.00;78.20;;;;;;5120007;27;20058;-58
2021/10/26 12:07:17;;;;;;;6.10;4.68;;;14.00;78.20;;;;;;5114269;28;20036;-59
2021/10/26 12:09:53;;;;;;;7.47;5.07;;;14.00;78.20;;;;;;5130141;27;20053;-58
2021/10/26 12:12:25;;;;;;;6.32;4.97;;;14.10;78.90;;;;;;5134708;27;20054;-56
2021/10/26 12:14:59;;;;;;;6.35;4.68;;;14.00;78.30;;;;;;5115531;27;20471;-59
2021/10/26 12:17:32;;;;;;;5.82;4.55;;;14.00;78.30;;;;;;5134642;27;20390;-59
2021/10/26 12:20:06;;;;;;;5.55;4.60;;;14.00;78.30;;;;;;5132796;27;20035;-60
2021/10/26 12:22:47;;;;;;;6.00;4.68;;;14.00;78.30;;;;;;5134262;27;20096;-59
2021/10/26 12:25:22;;;;;;;6.97;5.05;;;14.00;78.20;;;;;;5133785;27;20115;-60
2021/10/26 12:27:53;;;;;;;5.88;4.57;;;14.00;78.30;;;;;;5133972;27;20110;-59
2021/10/26 12:30:23;;;;;;;5.32;4.38;;;14.00;78.30;;;;;;5133772;27;20149;-59
2021/10/26 12:33:05;;;;;;;5.10;4.20;;;14.00;78.30;;;;;;5114619;27;20135;-59
2021/10/26 12:35:42;;;;;;;4.88;4.38;;;14.00;78.30;;;;;;5133970;27;20122;-58
2021/10/26 12:38:26;;;;;;;5.70;4.07;;;14.00;78.30;;;;;;5133930;27;20442;-60
2021/10/26 12:40:56;;;;;;;5.75;4.28;;;14.00;78.30;;;;;;5133151;27;20123;-58
2021/10/26 12:43:25;;;;;;;5.40;4.60;;;14.00;78.30;;;;;;5133471;27;20445;-57
2021/10/26 12:45:53;;;;;;;5.75;4.30;;;14.00;78.30;;;;;;5133939;27;20399;-57
2021/10/26 12:48:19;;;;;;;4.78;3.70;;;14.00;78.30;;;;;;5133744;27;20371;-58
2021/10/26 12:50:51;;;;;;;4.63;3.80;;;14.00;78.30;;;;;;5115023;27;20051;-58
2021/10/26 12:53:27;;;;;;;4.45;3.70;;;14.00;78.30;;;;;;5133399;27;20119;-58
2021/10/26 12:55:55;;;;;;;4.30;3.70;;;14.10;78.40;;;;;;5132504;27;20118;-59
2021/10/26 12:58:40;;;;;;;5.15;4.20;;;14.00;78.30;;;;;;5126354;27;20114;-57
2021/10/26 13:01:28;;;;;;;4.60;3.80;;;14.00;78.30;;;;;;5131830;27;20040;-58